Time;durP1;ratioP1;P1;durP2;ratioP2;P2;SDS_P1;SDS_P2;PMS_P1;PMS_P2;Temp;Humidity;BMP_temperature;BMP_pressure;BME280_temperature;BME280_humidity;BME280_pressure;Samples;Min_cycle;Max_cycle;Signal;HPM_P1;HPM_P2
2022/07/02 00:01:22;;;;;;;1.58;0.88;;;18.10;99.90;;;;;;4133576;28;20417;-68
2022/07/02 00:03:31;;;;;;;1.77;1.15;;;18.10;99.90;;;;;;4134408;28;20050;-68
2022/07/02 00:05:35;;;;;;;2.28;1.20;;;18.00;99.90;;;;;;4133877;28;20113;-68
2022/07/02 00:07:35;;;;;;;1.75;0.90;;;18.00;99.90;;;;;;4132017;28;20030;-68
2022/07/02 00:09:37;;;;;;;2.38;1.20;;;18.00;99.90;;;;;;4134283;28;20030;-68
2022/07/02 00:11:40;;;;;;;4.40;1.38;;;18.00;99.90;;;;;;4133766;28;20046;-68
2022/07/02 00:13:42;;;;;;;1.85;1.35;;;18.00;99.90;;;;;;4134490;28;20120;-68
2022/07/02 00:15:43;;;;;;;1.35;0.93;;;18.00;99.90;;;;;;4133738;28;20062;-68
2022/07/02 00:17:44;;;;;;;1.75;1.30;;;18.00;99.90;;;;;;4133003;28;20088;-68
2022/07/02 00:19:45;;;;;;;1.73;1.20;;;18.00;99.90;;;;;;4128451;28;20521;-68
2022/07/02 00:21:47;;;;;;;1.85;1.02;;;18.00;99.90;;;;;;4126688;28;20156;-68
2022/07/02 00:23:47;;;;;;;3.17;1.13;;;18.00;99.90;;;;;;4125685;28;20039;-69
2022/07/02 00:25:54;;;;;;;2.00;1.08;;;18.00;99.90;;;;;;4126672;28;20361;-68
2022/07/02 00:27:54;;;;;;;2.15;1.08;;;18.00;99.90;;;;;;4128015;28;20033;-68
2022/07/02 00:30:01;;;;;;;1.90;0.95;;;18.00;99.90;;;;;;4126248;28;20109;-68
2022/07/02 00:32:03;;;;;;;2.05;1.13;;;18.00;99.90;;;;;;4127259;28;20033;-68
2022/07/02 00:34:08;;;;;;;1.42;0.95;;;17.90;99.90;;;;;;4120675;28;20085;-68
2022/07/02 00:36:21;;;;;;;4.00;1.15;;;17.90;99.90;;;;;;4125072;28;20482;-68
2022/07/02 00:38:22;;;;;;;1.63;1.10;;;17.80;99.90;;;;;;4128024;28;20402;-67
2022/07/02 00:40:24;;;;;;;2.15;0.82;;;17.80;99.90;;;;;;4122117;28;20039;-68
2022/07/02 00:42:25;;;;;;;1.52;0.90;;;17.80;99.90;;;;;;4124846;28;20026;-68
2022/07/02 00:44:26;;;;;;;1.63;0.90;;;17.80;99.90;;;;;;4125385;28;20045;-68
2022/07/02 00:46:28;;;;;;;1.90;1.00;;;17.70;99.90;;;;;;4127028;28;20030;-68
2022/07/02 00:48:29;;;;;;;1.20;0.90;;;17.70;99.90;;;;;;4126431;28;20486;-68
2022/07/02 00:50:30;;;;;;;1.33;1.10;;;17.80;99.90;;;;;;4124940;28;20126;-68
2022/07/02 00:52:31;;;;;;;2.40;1.17;;;17.70;99.90;;;;;;4127808;28;20035;-68
2022/07/02 00:54:32;;;;;;;2.17;1.05;;;17.70;99.90;;;;;;4122467;28;20105;-68
2022/07/02 00:56:33;;;;;;;2.13;1.30;;;17.70;99.90;;;;;;4123431;28;20032;-68
2022/07/02 00:58:33;;;;;;;2.08;0.98;;;17.70;99.90;;;;;;4126247;28;20038;-68
2022/07/02 01:00:34;;;;;;;2.03;1.23;;;17.70;99.90;;;;;;4121958;28;20069;-68
2022/07/02 01:02:37;;;;;;;1.80;1.00;;;17.70;99.90;;;;;;4125279;28;20368;-68
2022/07/02 01:04:40;;;;;;;1.95;1.10;;;17.70;99.90;;;;;;4126214;28;20034;-68
2022/07/02 01:06:42;;;;;;;0.93;0.80;;;17.70;99.90;;;;;;4124868;28;20587;-68
2022/07/02 01:11:04;;;;;;;1.65;0.85;;;17.70;99.90;;;;;;4122694;28;20431;-68
2022/07/02 01:13:05;;;;;;;1.88;1.00;;;17.70;99.90;;;;;;4124921;28;20038;-68
2022/07/02 01:15:06;;;;;;;1.70;1.08;;;17.70;99.90;;;;;;4120873;28;20035;-69
2022/07/02 01:17:06;;;;;;;3.80;1.48;;;17.70;99.90;;;;;;4123072;28;20104;-68
2022/07/02 01:19:08;;;;;;;2.75;1.20;;;17.60;99.90;;;;;;4125436;28;20042;-68
2022/07/02 01:21:09;;;;;;;1.13;0.87;;;17.60;99.90;;;;;;4121839;28;20038;-68
2022/07/02 01:23:09;;;;;;;3.08;1.20;;;17.60;99.90;;;;;;4126631;28;20490;-68
2022/07/02 01:25:10;;;;;;;1.05;0.80;;;17.60;99.90;;;;;;4121728;28;25357;-69
2022/07/02 01:27:10;;;;;;;1.75;1.08;;;17.60;99.90;;;;;;4122573;28;20041;-68
2022/07/02 01:29:11;;;;;;;1.95;0.95;;;17.60;99.90;;;;;;4109320;28;20039;-68
2022/07/02 01:31:12;;;;;;;2.33;1.02;;;17.60;99.90;;;;;;4120033;28;20042;-68
2022/07/02 01:33:13;;;;;;;1.70;1.20;;;17.50;99.90;;;;;;4123101;28;20087;-68
2022/07/02 01:35:14;;;;;;;1.52;1.10;;;17.50;99.90;;;;;;4118935;28;20045;-69
2022/07/02 01:37:16;;;;;;;1.20;0.82;;;17.60;99.90;;;;;;4122009;28;20117;-68
2022/07/02 01:39:23;;;;;;;;;;;17.50;99.90;;;;;;4125375;28;20035;-68
2022/07/02 01:41:39;;;;;;;3.20;1.08;;;17.50;99.90;;;;;;4116483;28;19910;-67
2022/07/02 01:43:39;;;;;;;1.95;1.30;;;17.50;99.90;;;;;;4121604;28;20571;-68
2022/07/02 01:45:40;;;;;;;1.15;1.00;;;17.50;99.90;;;;;;4123041;28;20030;-68
2022/07/02 01:47:41;;;;;;;2.97;1.40;;;17.50;99.90;;;;;;4124224;28;20033;-68
2022/07/02 01:49:42;;;;;;;5.10;1.38;;;17.50;99.90;;;;;;4129226;28;20065;-68
2022/07/02 01:51:42;;;;;;;3.25;1.17;;;17.50;99.90;;;;;;4128511;28;20476;-68
2022/07/02 01:53:43;;;;;;;3.33;1.60;;;17.50;99.90;;;;;;4129261;28;20042;-68
2022/07/02 01:55:44;;;;;;;1.60;1.08;;;17.50;99.90;;;;;;4125355;28;20041;-68
2022/07/02 01:57:45;;;;;;;2.53;1.00;;;17.40;99.90;;;;;;4118479;28;20110;-68
2022/07/02 01:59:45;;;;;;;1.75;1.08;;;17.40;99.90;;;;;;4129144;28;20044;-68
2022/07/02 02:01:46;;;;;;;2.00;1.13;;;17.40;99.90;;;;;;4128492;28;20038;-68
2022/07/02 02:03:47;;;;;;;1.88;1.20;;;17.40;99.90;;;;;;4128433;28;20034;-68
2022/07/02 02:05:52;;;;;;;1.48;1.13;;;17.40;99.90;;;;;;4120047;28;20038;-68
2022/07/02 02:07:52;;;;;;;1.92;1.05;;;17.40;99.90;;;;;;4123012;28;20164;-67
2022/07/02 02:09:53;;;;;;;2.20;1.30;;;17.40;99.90;;;;;;4114893;28;20491;-68
2022/07/02 02:11:54;;;;;;;1.20;1.10;;;17.30;99.90;;;;;;4114255;28;20387;-68
2022/07/02 02:13:57;;;;;;;2.33;1.33;;;17.30;99.90;;;;;;4119264;28;20489;-67
2022/07/02 02:15:58;;;;;;;1.98;1.05;;;17.20;99.90;;;;;;4113829;28;20489;-68
2022/07/02 02:17:59;;;;;;;2.70;1.30;;;17.20;99.90;;;;;;4128770;28;20041;-68
2022/07/02 02:19:59;;;;;;;2.85;1.40;;;17.10;99.90;;;;;;4123387;28;20030;-68
2022/07/02 02:22:00;;;;;;;2.35;1.30;;;17.10;99.90;;;;;;4120183;28;20094;-68
2022/07/02 02:24:01;;;;;;;1.52;1.15;;;17.10;99.90;;;;;;4124117;28;20045;-68
2022/07/02 02:26:02;;;;;;;2.53;1.40;;;17.10;99.90;;;;;;4118100;28;20031;-70
2022/07/02 02:28:03;;;;;;;2.50;1.13;;;17.10;99.90;;;;;;4124064;28;20033;-68
2022/07/02 02:30:04;;;;;;;2.47;1.20;;;17.10;99.90;;;;;;4122894;28;20490;-69
2022/07/02 02:32:05;;;;;;;1.00;0.90;;;17.10;99.90;;;;;;4119924;28;20038;-68
2022/07/02 02:34:06;;;;;;;1.90;1.45;;;17.00;99.90;;;;;;4123072;28;20406;-68
2022/07/02 02:36:07;;;;;;;2.88;1.38;;;17.00;99.90;;;;;;4120063;28;20446;-69
2022/07/02 02:38:08;;;;;;;3.15;1.30;;;17.00;99.90;;;;;;4123780;28;20104;-68
2022/07/02 02:40:09;;;;;;;1.42;1.30;;;17.00;99.90;;;;;;4121959;28;20038;-70
2022/07/02 02:42:10;;;;;;;1.65;1.02;;;17.00;99.90;;;;;;4120246;28;20042;-68
2022/07/02 02:44:10;;;;;;;2.13;1.23;;;16.90;99.90;;;;;;4121997;28;20510;-68
2022/07/02 02:46:11;;;;;;;3.20;1.67;;;17.00;99.90;;;;;;4119738;28;20401;-68
2022/07/02 02:48:11;;;;;;;3.95;1.30;;;16.90;99.90;;;;;;4123858;28;20038;-69
2022/07/02 02:50:12;;;;;;;1.27;1.10;;;16.90;99.90;;;;;;4120621;28;20133;-69
2022/07/02 02:52:12;;;;;;;1.73;1.10;;;16.90;99.90;;;;;;4112447;28;20517;-69
2022/07/02 02:54:13;;;;;;;2.97;1.20;;;17.00;99.90;;;;;;4114646;28;20092;-68
2022/07/02 02:56:13;;;;;;;3.08;1.38;;;17.00;99.90;;;;;;4128225;28;20030;-68
2022/07/02 02:58:14;;;;;;;2.60;1.42;;;17.00;99.90;;;;;;4125991;28;20041;-68
2022/07/02 03:00:15;;;;;;;1.20;1.00;;;17.00;99.90;;;;;;4128006;28;20549;-69
2022/07/02 03:02:15;;;;;;;1.25;1.15;;;17.00;99.90;;;;;;4128851;28;20385;-68
2022/07/02 03:04:16;;;;;;;2.03;1.40;;;17.00;99.90;;;;;;4128001;28;20027;-68
2022/07/02 03:06:17;;;;;;;2.63;1.40;;;17.00;99.90;;;;;;4129241;28;20037;-68
2022/07/02 03:08:17;;;;;;;2.22;1.27;;;16.90;99.90;;;;;;4129034;28;20088;-68
2022/07/02 03:10:18;;;;;;;1.25;1.20;;;16.90;99.90;;;;;;4128871;28;20485;-69
2022/07/02 03:12:19;;;;;;;1.40;1.30;;;16.90;99.90;;;;;;4129486;28;20109;-68
2022/07/02 03:14:20;;;;;;;1.02;0.88;;;16.90;99.90;;;;;;4144480;28;20128;-68
2022/07/02 03:16:20;;;;;;;1.95;1.17;;;16.90;99.90;;;;;;4128624;28;20038;-68
2022/07/02 03:18:21;;;;;;;2.20;1.30;;;16.90;99.90;;;;;;4128718;28;20065;-68
2022/07/02 03:20:21;;;;;;;1.80;1.42;;;16.90;99.90;;;;;;4128913;28;20040;-69
2022/07/02 03:22:22;;;;;;;2.65;1.35;;;16.80;99.90;;;;;;4129523;28;20026;-68
2022/07/02 03:24:23;;;;;;;3.03;1.50;;;16.80;99.90;;;;;;4129246;28;20087;-67
2022/07/02 03:26:23;;;;;;;1.58;1.45;;;16.80;99.90;;;;;;4128795;28;20034;-67
2022/07/02 03:28:24;;;;;;;2.10;1.38;;;16.80;99.90;;;;;;4128699;28;20038;-68
2022/07/02 03:30:25;;;;;;;1.42;1.17;;;16.80;99.90;;;;;;4128684;28;20093;-68
2022/07/02 03:32:28;;;;;;;2.50;1.73;;;16.80;99.90;;;;;;4129321;28;20030;-67
2022/07/02 03:34:28;;;;;;;3.45;1.65;;;16.70;99.90;;;;;;4129400;28;20030;-66
2022/07/02 03:36:29;;;;;;;2.03;1.40;;;16.70;99.90;;;;;;4128743;28;20045;-67
2022/07/02 03:38:30;;;;;;;3.58;1.42;;;16.70;99.90;;;;;;4128254;28;20092;-67
2022/07/02 03:40:31;;;;;;;2.17;1.17;;;16.70;99.90;;;;;;4128455;28;20057;-68
2022/07/02 03:42:31;;;;;;;4.53;1.40;;;16.70;99.90;;;;;;4129495;28;20038;-68
2022/07/02 03:44:32;;;;;;;3.80;1.70;;;16.70;99.90;;;;;;4129083;28;20043;-68
2022/07/02 03:46:33;;;;;;;2.60;1.38;;;16.70;99.90;;;;;;4128636;28;20038;-67
2022/07/02 03:48:34;;;;;;;1.50;1.35;;;16.70;99.90;;;;;;4127381;28;20034;-68
2022/07/02 03:50:38;;;;;;;3.20;1.40;;;16.70;99.90;;;;;;4128565;28;20034;-67
2022/07/02 03:52:39;;;;;;;2.97;1.25;;;16.70;99.90;;;;;;4129091;28;20517;-68
2022/07/02 03:54:40;;;;;;;2.58;1.42;;;16.70;99.90;;;;;;4128903;28;20141;-68
2022/07/02 03:56:40;;;;;;;1.40;1.30;;;16.70;99.90;;;;;;4128424;28;20042;-68
2022/07/02 03:58:41;;;;;;;4.22;1.45;;;16.70;99.90;;;;;;4127505;28;20089;-68
2022/07/02 04:00:42;;;;;;;1.70;1.35;;;16.70;99.90;;;;;;4128010;28;20030;-68
2022/07/02 04:02:42;;;;;;;3.60;1.38;;;16.70;99.90;;;;;;4125567;28;20494;-68
2022/07/02 04:04:43;;;;;;;1.20;1.10;;;16.70;99.90;;;;;;4129015;28;20397;-68
2022/07/02 04:06:43;;;;;;;3.03;1.40;;;16.70;99.90;;;;;;4128297;28;20382;-68
2022/07/02 04:08:44;;;;;;;1.63;1.23;;;16.70;99.90;;;;;;4126072;28;20114;-68
2022/07/02 04:10:45;;;;;;;3.38;1.50;;;16.70;99.90;;;;;;4127308;28;20617;-68
2022/07/02 04:12:45;;;;;;;1.70;1.20;;;16.70;99.90;;;;;;4127813;28;20030;-68
2022/07/02 04:14:46;;;;;;;3.28;1.40;;;16.70;99.90;;;;;;4129012;28;20061;-68
2022/07/02 04:16:46;;;;;;;2.22;1.52;;;16.70;99.90;;;;;;4128077;28;20046;-68
2022/07/02 04:18:47;;;;;;;4.40;1.67;;;16.70;99.90;;;;;;4126151;28;20434;-68
2022/07/02 04:20:48;;;;;;;1.73;1.23;;;16.70;99.90;;;;;;4125988;28;20100;-68
2022/07/02 04:22:48;;;;;;;4.28;1.85;;;16.70;99.90;;;;;;4127706;28;20066;-68
2022/07/02 04:24:49;;;;;;;2.35;1.58;;;16.70;99.90;;;;;;4128816;28;20026;-68
2022/07/02 04:26:49;;;;;;;5.68;2.25;;;16.70;99.90;;;;;;4128143;28;20066;-68
2022/07/02 04:28:50;;;;;;;5.72;1.92;;;16.70;99.90;;;;;;4129711;28;20438;-67
2022/07/02 04:30:51;;;;;;;2.92;1.65;;;16.70;99.90;;;;;;4129187;28;20031;-68
2022/07/02 04:32:51;;;;;;;3.40;1.92;;;16.70;99.90;;;;;;4131867;28;20038;-68
2022/07/02 04:34:52;;;;;;;3.15;1.98;;;16.80;99.90;;;;;;4131823;28;20169;-68
2022/07/02 04:36:52;;;;;;;3.67;2.05;;;16.80;99.90;;;;;;4130990;28;20546;-68
2022/07/02 04:38:53;;;;;;;3.08;1.80;;;16.80;99.90;;;;;;4128990;28;20045;-68
2022/07/02 04:40:54;;;;;;;3.05;1.55;;;16.80;99.90;;;;;;4130032;28;20089;-67
2022/07/02 04:42:54;;;;;;;5.38;1.77;;;16.80;99.90;;;;;;4131519;28;20085;-67
2022/07/02 04:44:55;;;;;;;3.00;1.80;;;16.80;99.90;;;;;;4130685;28;20045;-67
2022/07/02 04:46:56;;;;;;;5.70;1.88;;;16.80;99.90;;;;;;4130490;28;20066;-67
2022/07/02 04:48:57;;;;;;;4.88;1.60;;;16.80;99.90;;;;;;4129994;28;20057;-68
2022/07/02 04:50:57;;;;;;;3.20;2.10;;;16.80;99.90;;;;;;4130589;28;20429;-67
2022/07/02 04:52:58;;;;;;;3.47;1.70;;;16.80;99.90;;;;;;4131472;28;20084;-68
2022/07/02 04:54:59;;;;;;;4.80;1.73;;;16.90;99.90;;;;;;4130375;28;20038;-67
2022/07/02 04:56:59;;;;;;;7.60;1.88;;;16.90;99.90;;;;;;4129837;28;20035;-68
2022/07/02 04:59:00;;;;;;;5.40;1.77;;;16.90;99.90;;;;;;4130072;28;20041;-67
2022/07/02 05:01:00;;;;;;;4.72;1.75;;;16.90;99.90;;;;;;4130108;28;20058;-68
2022/07/02 05:03:01;;;;;;;2.45;1.60;;;17.00;99.90;;;;;;4130922;28;20031;-67
2022/07/02 05:05:02;;;;;;;4.43;2.08;;;17.00;99.90;;;;;;4131258;28;20042;-67
2022/07/02 05:07:02;;;;;;;7.38;2.15;;;17.00;99.90;;;;;;4129798;28;20114;-68
2022/07/02 05:09:03;;;;;;;4.20;2.13;;;17.00;99.90;;;;;;4129319;28;20485;-68
2022/07/02 05:11:04;;;;;;;5.22;1.77;;;17.00;99.90;;;;;;4126932;28;20155;-67
2022/07/02 05:13:04;;;;;;;10.05;2.33;;;17.10;99.90;;;;;;4125398;28;20030;-68
2022/07/02 05:15:05;;;;;;;12.07;2.25;;;17.10;99.90;;;;;;4125445;28;20034;-69
2022/07/02 05:17:06;;;;;;;4.97;2.35;;;17.10;99.90;;;;;;4119769;28;20042;-68
2022/07/02 05:19:07;;;;;;;3.40;1.92;;;17.10;99.90;;;;;;4124768;28;20042;-68
2022/07/02 05:21:07;;;;;;;4.50;2.00;;;17.10;99.90;;;;;;4124829;28;20039;-67
2022/07/02 05:23:08;;;;;;;4.85;1.95;;;17.10;99.90;;;;;;4122782;28;20405;-68
2022/07/02 05:25:09;;;;;;;3.42;1.70;;;17.20;99.90;;;;;;4122025;28;20121;-69
2022/07/02 05:27:09;;;;;;;4.97;2.20;;;17.30;99.90;;;;;;4120774;28;20573;-68
2022/07/02 05:29:10;;;;;;;6.40;2.40;;;17.30;99.90;;;;;;4126743;28;20065;-68
2022/07/02 05:31:11;;;;;;;7.03;2.17;;;17.30;99.90;;;;;;4121787;28;20035;-68
2022/07/02 05:33:11;;;;;;;5.88;1.95;;;17.30;99.90;;;;;;4124358;28;20046;-68
2022/07/02 05:35:12;;;;;;;4.72;2.65;;;17.40;99.90;;;;;;4122234;28;20038;-69
2022/07/02 05:37:12;;;;;;;5.90;2.25;;;17.40;99.90;;;;;;4119820;28;20075;-68
2022/07/02 05:39:13;;;;;;;5.60;2.70;;;17.50;99.90;;;;;;4123363;28;20169;-68
2022/07/02 05:41:14;;;;;;;5.28;1.85;;;17.50;99.90;;;;;;4122436;28;20057;-68
2022/07/02 05:43:14;;;;;;;6.35;2.78;;;17.50;99.90;;;;;;4125204;28;20126;-68
2022/07/02 05:45:15;;;;;;;4.78;2.58;;;17.50;99.90;;;;;;4120250;28;20086;-69
2022/07/02 05:47:15;;;;;;;4.93;2.17;;;17.50;99.90;;;;;;4124734;28;20071;-68
2022/07/02 05:49:16;;;;;;;5.70;2.65;;;17.60;99.90;;;;;;4125865;28;20038;-68
2022/07/02 05:51:17;;;;;;;5.97;2.40;;;17.70;99.90;;;;;;4121389;28;20030;-68
2022/07/02 05:53:17;;;;;;;6.53;2.22;;;17.80;99.90;;;;;;4123162;28;20041;-69
2022/07/02 05:55:18;;;;;;;7.32;2.28;;;18.10;99.90;;;;;;4122419;28;20041;-69
2022/07/02 05:57:19;;;;;;;2.83;2.20;;;18.50;99.90;;;;;;4123414;28;20602;-69
2022/07/02 05:59:21;;;;;;;6.72;2.38;;;18.90;99.90;;;;;;4125311;28;20092;-69
2022/07/02 06:01:22;;;;;;;;;;;19.30;99.90;;;;;;4116931;28;20077;-69
2022/07/02 06:03:22;;;;;;;5.25;2.60;;;19.80;99.90;;;;;;4123723;28;19913;-69
2022/07/02 06:07:43;;;;;;;7.13;2.33;;;20.60;99.90;;;;;;4124922;28;20113;-69
2022/07/02 06:09:44;;;;;;;3.92;2.05;;;21.10;99.90;;;;;;4124118;28;20083;-69
2022/07/02 06:11:44;;;;;;;3.13;1.90;;;21.60;99.90;;;;;;4106975;28;20518;-70
2022/07/02 06:13:45;;;;;;;4.05;1.88;;;22.10;99.90;;;;;;4127509;28;20031;-70
2022/07/02 06:15:45;;;;;;;3.92;1.70;;;22.50;99.90;;;;;;4128321;28;20038;-73
2022/07/02 06:17:47;;;;;;;4.07;1.60;;;22.90;99.90;;;;;;4126334;28;20045;-73
2022/07/02 06:19:48;;;;;;;3.13;1.67;;;23.30;99.90;;;;;;4128260;28;20042;-74
2022/07/02 06:21:49;;;;;;;4.80;1.65;;;23.60;99.90;;;;;;4128707;28;20034;-73
2022/07/02 06:23:49;;;;;;;5.32;1.70;;;24.00;99.90;;;;;;4128016;28;20100;-73
2022/07/02 06:25:50;;;;;;;4.78;1.58;;;24.30;99.90;;;;;;4140872;28;20141;-74
2022/07/02 06:27:51;;;;;;;5.20;1.67;;;24.70;99.50;;;;;;4127621;28;20204;-73
2022/07/02 06:29:51;;;;;;;3.85;1.77;;;24.90;99.30;;;;;;4129487;28;20042;-74
2022/07/02 06:31:52;;;;;;;4.32;2.05;;;25.00;95.80;;;;;;4128680;28;20038;-73
2022/07/02 06:33:53;;;;;;;4.28;1.90;;;25.10;95.60;;;;;;4128896;28;20048;-73
2022/07/02 06:35:53;;;;;;;5.45;1.92;;;25.10;95.60;;;;;;4127710;28;20038;-74
2022/07/02 06:37:54;;;;;;;3.25;1.40;;;25.00;95.30;;;;;;4126970;28;20042;-74
2022/07/02 06:39:54;;;;;;;4.68;2.00;;;25.10;94.40;;;;;;4135000;28;20034;-74
2022/07/02 06:44:14;;;;;;;7.10;1.98;;;25.10;94.70;;;;;;4128486;28;20049;-74
2022/07/02 06:46:15;;;;;;;5.47;2.08;;;25.00;93.70;;;;;;4121583;28;20494;-74
2022/07/02 06:48:15;;;;;;;4.03;1.80;;;24.90;93.80;;;;;;4126536;28;20077;-74
2022/07/02 06:50:18;;;;;;;8.57;2.30;;;24.80;92.80;;;;;;4125254;28;20038;-75
2022/07/02 06:52:18;;;;;;;3.08;1.42;;;24.70;92.60;;;;;;4120016;28;20026;-74
2022/07/02 06:54:19;;;;;;;6.13;2.63;;;24.70;93.40;;;;;;4128074;28;20035;-74
2022/07/02 06:56:20;;;;;;;4.47;1.80;;;24.50;93.40;;;;;;4127948;28;20050;-74
2022/07/02 06:58:20;;;;;;;7.05;1.92;;;24.50;94.30;;;;;;4128409;28;20044;-74
2022/07/02 07:00:23;;;;;;;5.82;1.60;;;24.50;94.40;;;;;;4124254;28;20045;-75
2022/07/02 07:02:24;;;;;;;3.38;1.48;;;24.50;92.70;;;;;;4129050;28;20038;-74
2022/07/02 07:04:27;;;;;;;4.30;1.70;;;24.50;93.60;;;;;;4128653;28;20456;-74
2022/07/02 07:06:35;;;;;;;3.30;1.55;;;24.40;92.90;;;;;;4134513;28;20037;-74
2022/07/02 07:08:35;;;;;;;4.53;1.63;;;24.30;92.10;;;;;;4125653;28;20041;-74
2022/07/02 07:10:36;;;;;;;4.38;1.77;;;24.30;94.10;;;;;;4126839;28;20390;-74
2022/07/02 07:12:36;;;;;;;3.03;1.60;;;24.20;93.00;;;;;;4127790;28;20581;-74
2022/07/02 07:14:37;;;;;;;4.13;1.40;;;24.10;92.80;;;;;;4127145;28;20048;-74
2022/07/02 07:16:38;;;;;;;4.60;1.27;;;24.20;93.80;;;;;;4127278;28;20113;-73
2022/07/02 07:18:38;;;;;;;4.88;1.42;;;24.30;93.20;;;;;;4126417;28;20063;-73
2022/07/02 07:20:39;;;;;;;2.00;1.13;;;24.20;93.10;;;;;;4136261;28;20045;-73
2022/07/02 07:22:40;;;;;;;3.92;1.17;;;24.20;92.80;;;;;;4136921;28;20037;-74
2022/07/02 07:24:40;;;;;;;5.50;1.63;;;24.20;91.80;;;;;;4127452;28;20080;-74
2022/07/02 07:26:41;;;;;;;2.92;1.67;;;24.20;92.20;;;;;;4127824;28;20037;-73
2022/07/02 07:28:41;;;;;;;3.30;1.65;;;24.10;91.80;;;;;;4122363;28;20038;-74
2022/07/02 07:30:43;;;;;;;2.75;1.20;;;24.00;92.00;;;;;;4123158;28;20042;-74
2022/07/02 07:32:43;;;;;;;3.30;1.13;;;23.90;91.40;;;;;;4128206;28;20057;-73
2022/07/02 07:34:44;;;;;;;3.00;0.90;;;23.90;91.20;;;;;;4128577;28;20042;-73
2022/07/02 07:36:45;;;;;;;1.15;0.60;;;23.90;89.10;;;;;;4142847;28;20044;-73
2022/07/02 07:38:46;;;;;;;1.83;1.27;;;23.90;91.40;;;;;;4124371;28;20038;-73
2022/07/02 07:40:48;;;;;;;2.88;0.82;;;23.90;91.70;;;;;;4125925;28;20049;-73
2022/07/02 07:42:48;;;;;;;4.45;0.93;;;23.80;90.60;;;;;;4127349;28;20035;-75
2022/07/02 07:44:49;;;;;;;2.47;0.82;;;23.90;91.90;;;;;;4128027;28;20034;-74
2022/07/02 07:46:50;;;;;;;1.83;0.80;;;23.80;90.10;;;;;;4126204;28;20031;-74
2022/07/02 07:48:50;;;;;;;2.42;1.00;;;23.80;91.40;;;;;;4125790;28;20037;-74
2022/07/02 07:50:51;;;;;;;1.88;0.82;;;23.90;91.20;;;;;;4127736;28;20049;-73
2022/07/02 07:52:52;;;;;;;1.88;0.70;;;23.90;90.80;;;;;;4127968;28;20085;-73
2022/07/02 07:54:52;;;;;;;2.95;0.80;;;24.00;90.00;;;;;;4128134;28;20035;-73
2022/07/02 07:56:53;;;;;;;1.83;0.60;;;24.00;89.60;;;;;;4131096;28;20390;-73
2022/07/02 07:58:53;;;;;;;1.58;0.50;;;24.00;90.00;;;;;;4125879;28;20490;-73
2022/07/02 08:00:54;;;;;;;1.77;0.68;;;23.90;86.10;;;;;;4127678;28;20038;-73
2022/07/02 08:02:54;;;;;;;2.20;0.80;;;23.90;87.10;;;;;;4130165;28;20105;-73
2022/07/02 08:04:55;;;;;;;2.45;0.70;;;24.00;87.90;;;;;;4131798;28;20043;-73
2022/07/02 08:06:56;;;;;;;2.28;0.60;;;24.00;85.80;;;;;;4129200;28;20061;-72
2022/07/02 08:08:57;;;;;;;1.58;0.50;;;24.00;90.30;;;;;;4141430;28;20052;-74
2022/07/02 08:10:58;;;;;;;4.10;1.23;;;23.90;87.10;;;;;;4123989;28;20395;-73
2022/07/02 08:12:58;;;;;;;2.15;0.57;;;24.00;87.50;;;;;;4120154;28;20061;-73
2022/07/02 08:14:59;;;;;;;3.45;1.15;;;24.00;88.50;;;;;;4126852;28;20030;-72
2022/07/02 08:17:00;;;;;;;4.18;0.73;;;24.00;86.80;;;;;;4125744;28;20026;-73
2022/07/02 08:19:00;;;;;;;2.40;0.55;;;24.00;90.30;;;;;;4129795;28;20026;-74
2022/07/02 08:21:01;;;;;;;2.95;0.70;;;24.00;87.10;;;;;;4130533;28;20045;-73
2022/07/02 08:23:02;;;;;;;1.83;0.77;;;23.90;87.80;;;;;;4130646;28;20057;-73
2022/07/02 08:25:05;;;;;;;1.15;0.50;;;24.00;85.40;;;;;;4129779;28;20038;-76
2022/07/02 08:27:06;;;;;;;2.13;0.70;;;24.00;83.80;;;;;;4129865;28;20038;-73
2022/07/02 08:29:06;;;;;;;2.00;0.70;;;24.00;84.10;;;;;;4143729;28;20072;-73
2022/07/02 08:31:07;;;;;;;1.90;0.60;;;24.00;84.30;;;;;;4130378;28;20042;-73
2022/07/02 08:33:07;;;;;;;5.93;0.90;;;24.10;85.80;;;;;;4126380;28;20065;-73
2022/07/02 08:35:08;;;;;;;1.60;0.70;;;24.10;87.00;;;;;;4129497;28;20050;-74
2022/07/02 08:37:09;;;;;;;2.42;0.45;;;24.20;83.80;;;;;;4129479;28;20118;-73
2022/07/02 08:39:09;;;;;;;1.70;0.98;;;24.20;84.70;;;;;;4129999;28;20048;-73
2022/07/02 08:41:12;;;;;;;3.67;1.05;;;24.20;82.30;;;;;;4116109;28;20058;-73
2022/07/02 08:43:14;;;;;;;1.95;0.55;;;24.20;81.20;;;;;;4130315;28;20146;-74
2022/07/02 08:45:17;;;;;;;2.50;0.60;;;24.20;82.80;;;;;;4129368;28;20043;-74
2022/07/02 08:47:19;;;;;;;3.40;1.00;;;24.20;81.70;;;;;;4125557;28;21183;-74
2022/07/02 08:49:21;;;;;;;3.50;0.65;;;24.20;82.50;;;;;;4128786;28;20030;-74
2022/07/02 08:51:21;;;;;;;1.65;0.60;;;24.30;82.10;;;;;;4126843;28;20061;-74
2022/07/02 08:53:22;;;;;;;1.92;0.40;;;24.20;79.70;;;;;;4130429;28;20046;-73
2022/07/02 08:55:22;;;;;;;1.20;0.40;;;24.20;83.20;;;;;;4129814;28;20033;-74
2022/07/02 08:57:27;;;;;;;1.33;0.43;;;24.40;84.10;;;;;;4129771;28;20128;-74
2022/07/02 08:59:32;;;;;;;1.88;0.77;;;24.40;82.30;;;;;;4114156;28;20035;-73
2022/07/02 09:01:33;;;;;;;1.75;0.50;;;24.50;80.70;;;;;;4113762;28;20082;-73
2022/07/02 09:03:33;;;;;;;2.38;0.55;;;24.50;80.30;;;;;;4129511;28;20550;-73
2022/07/02 09:05:35;;;;;;;0.82;0.50;;;24.60;82.30;;;;;;4129801;28;20497;-73
2022/07/02 09:07:38;;;;;;;1.13;0.43;;;24.60;80.20;;;;;;4127762;28;20030;-73
2022/07/02 09:09:41;;;;;;;1.60;0.40;;;24.70;78.90;;;;;;4130947;28;20042;-73
2022/07/02 09:11:43;;;;;;;0.73;0.45;;;24.80;83.10;;;;;;4129309;28;20038;-73
2022/07/02 09:13:44;;;;;;;0.50;0.32;;;24.80;79.20;;;;;;4115832;28;20497;-73
2022/07/02 09:15:45;;;;;;;0.80;0.40;;;24.90;77.80;;;;;;4118929;28;20386;-74
2022/07/02 09:17:46;;;;;;;0.52;0.20;;;24.90;76.30;;;;;;4123880;28;20034;-74
2022/07/02 09:19:47;;;;;;;0.82;0.35;;;24.90;75.70;;;;;;4128615;28;20414;-74
2022/07/02 09:21:50;;;;;;;0.63;0.30;;;24.90;74.80;;;;;;4123984;28;20053;-74
2022/07/02 09:23:50;;;;;;;3.13;0.30;;;24.90;73.20;;;;;;4107800;28;20537;-74
2022/07/02 09:25:51;;;;;;;0.95;0.40;;;25.00;76.60;;;;;;4123186;28;20034;-74
2022/07/02 09:28:03;;;;;;;1.00;0.47;;;25.10;73.30;;;;;;4122883;28;20044;-74
2022/07/02 09:30:05;;;;;;;1.98;0.60;;;25.10;69.80;;;;;;4122841;28;20037;-73
2022/07/02 09:32:06;;;;;;;2.80;0.45;;;25.10;71.90;;;;;;4121365;28;20077;-73
2022/07/02 09:34:07;;;;;;;0.75;0.40;;;25.10;73.00;;;;;;4123111;28;20051;-74
2022/07/02 09:36:10;;;;;;;2.83;0.52;;;25.20;74.40;;;;;;4122569;28;20558;-73
2022/07/02 09:38:12;;;;;;;0.73;0.40;;;25.20;74.90;;;;;;4127419;28;20104;-74
2022/07/02 09:40:14;;;;;;;1.77;0.60;;;25.10;72.70;;;;;;4129226;28;20037;-75
2022/07/02 09:42:25;;;;;;;2.20;0.40;;;25.10;73.30;;;;;;4129911;28;20038;-73
2022/07/02 09:44:26;;;;;;;1.38;0.73;;;25.20;75.00;;;;;;4113345;28;20047;-74
2022/07/02 09:46:28;;;;;;;1.60;0.40;;;25.20;77.20;;;;;;4118928;28;20482;-73
2022/07/02 09:48:29;;;;;;;1.93;0.50;;;25.20;73.00;;;;;;4127457;28;20332;-73
2022/07/02 09:50:36;;;;;;;2.75;0.75;;;25.20;74.60;;;;;;4129164;28;20078;-73
2022/07/02 09:52:48;;;;;;;1.30;0.60;;;25.10;75.30;;;;;;4129388;28;20151;-74
2022/07/02 09:54:49;;;;;;;0.65;0.43;;;25.10;76.10;;;;;;4145558;28;20048;-74
2022/07/02 09:56:54;;;;;;;2.95;0.68;;;25.10;73.80;;;;;;4132286;28;20030;-74
2022/07/02 09:58:54;;;;;;;0.60;0.30;;;25.10;73.80;;;;;;4137491;28;20489;-73
2022/07/02 10:01:00;;;;;;;2.83;0.68;;;25.20;69.10;;;;;;4145328;28;20037;-74
2022/07/02 10:03:02;;;;;;;0.50;0.38;;;25.20;71.20;;;;;;4134854;28;20026;-73
2022/07/02 10:05:05;;;;;;;4.30;0.77;;;25.20;72.10;;;;;;4129469;28;20022;-73
2022/07/02 10:07:06;;;;;;;1.58;0.65;;;25.30;72.50;;;;;;4126856;28;20133;-73
2022/07/02 10:09:07;;;;;;;1.45;0.60;;;25.40;74.70;;;;;;4137830;28;20042;-73
2022/07/02 10:11:10;;;;;;;1.48;0.40;;;25.40;72.90;;;;;;4145057;28;20567;-73
2022/07/02 10:13:13;;;;;;;3.08;0.80;;;25.30;71.90;;;;;;4142348;28;20095;-73
2022/07/02 10:15:19;;;;;;;3.72;0.55;;;25.30;68.60;;;;;;4127592;28;20034;-75
2022/07/02 10:17:21;;;;;;;1.98;0.60;;;25.20;71.50;;;;;;4126751;28;21331;-73
2022/07/02 10:19:22;;;;;;;0.63;0.50;;;25.30;70.40;;;;;;4108473;28;20035;-74
2022/07/02 10:21:23;;;;;;;1.65;0.57;;;25.30;70.10;;;;;;4112789;28;20085;-73
2022/07/02 10:23:24;;;;;;;1.48;0.57;;;25.20;69.20;;;;;;4115418;28;20034;-71
2022/07/02 10:25:24;;;;;;;1.13;0.63;;;25.10;71.30;;;;;;4120859;28;20042;-71
2022/07/02 10:27:25;;;;;;;0.98;0.57;;;25.30;73.50;;;;;;4121802;28;20854;-71
2022/07/02 10:29:27;;;;;;;1.30;0.40;;;25.40;70.60;;;;;;4128672;28;20037;-71
2022/07/02 10:31:44;;;;;;;1.93;0.47;;;25.40;71.00;;;;;;4114490;28;20117;-71
2022/07/02 10:33:53;;;;;;;0.55;0.38;;;25.40;71.10;;;;;;4115659;28;20502;-72
2022/07/02 10:35:57;;;;;;;3.50;0.63;;;25.50;73.10;;;;;;4129665;28;20030;-71
2022/07/02 10:38:00;;;;;;;1.73;0.50;;;25.50;71.00;;;;;;4121835;28;20038;-71
2022/07/02 10:40:02;;;;;;;1.65;0.70;;;25.60;72.30;;;;;;4129640;28;20030;-71